sensor_id;sensor_type;location;lat;lon;timestamp;temperature;humidity
45409;DHT22;31162;51.076;3.784;2023-08-20T00:01:23;20.10;99.90
45409;DHT22;31162;51.076;3.784;2023-08-20T00:03:51;20.20;99.90
45409;DHT22;31162;51.076;3.784;2023-08-20T00:06:18;20.00;99.90
45409;DHT22;31162;51.076;3.784;2023-08-20T00:08:44;19.80;99.90
45409;DHT22;31162;51.076;3.784;2023-08-20T00:11:11;19.80;99.90
45409;DHT22;31162;51.076;3.784;2023-08-20T00:13:37;19.90;99.90
45409;DHT22;31162;51.076;3.784;2023-08-20T00:16:03;19.80;99.90
45409;DHT22;31162;51.076;3.784;2023-08-20T00:18:29;19.80;99.90
45409;DHT22;31162;51.076;3.784;2023-08-20T00:20:55;19.90;99.90
45409;DHT22;31162;51.076;3.784;2023-08-20T00:23:22;20.00;99.90
45409;DHT22;31162;51.076;3.784;2023-08-20T00:25:48;20.10;99.90
45409;DHT22;31162;51.076;3.784;2023-08-20T00:28:14;20.20;99.90
45409;DHT22;31162;51.076;3.784;2023-08-20T00:30:39;20.20;99.90
45409;DHT22;31162;51.076;3.784;2023-08-20T00:33:05;20.30;99.90
45409;DHT22;31162;51.076;3.784;2023-08-20T00:35:31;20.30;99.90
45409;DHT22;31162;51.076;3.784;2023-08-20T00:37:57;20.30;99.90
45409;DHT22;31162;51.076;3.784;2023-08-20T00:40:23;20.40;99.90
45409;DHT22;31162;51.076;3.784;2023-08-20T00:42:48;20.40;99.90
45409;DHT22;31162;51.076;3.784;2023-08-20T00:45:15;20.50;99.90
45409;DHT22;31162;51.076;3.784;2023-08-20T00:47:42;20.60;99.90
45409;DHT22;31162;51.076;3.784;2023-08-20T00:50:09;20.50;99.90
45409;DHT22;31162;51.076;3.784;2023-08-20T00:52:35;20.50;99.90
45409;DHT22;31162;51.076;3.784;2023-08-20T00:55:09;20.50;99.90
45409;DHT22;31162;51.076;3.784;2023-08-20T00:57:36;20.50;99.90
45409;DHT22;31162;51.076;3.784;2023-08-20T01:00:03;20.40;99.90
45409;DHT22;31162;51.076;3.784;2023-08-20T01:02:33;20.30;99.90
45409;DHT22;31162;51.076;3.784;2023-08-20T01:04:58;20.20;99.90
45409;DHT22;31162;51.076;3.784;2023-08-20T01:10:18;20.40;99.90
45409;DHT22;31162;51.076;3.784;2023-08-20T01:12:46;20.30;99.90
45409;DHT22;31162;51.076;3.784;2023-08-20T01:15:12;20.20;99.90
45409;DHT22;31162;51.076;3.784;2023-08-20T01:17:40;20.10;99.90
45409;DHT22;31162;51.076;3.784;2023-08-20T01:20:08;20.00;99.90
45409;DHT22;31162;51.076;3.784;2023-08-20T01:25:17;19.90;99.90
45409;DHT22;31162;51.076;3.784;2023-08-20T01:28:21;19.80;99.90
45409;DHT22;31162;51.076;3.784;2023-08-20T01:30:47;19.80;99.90
45409;DHT22;31162;51.076;3.784;2023-08-20T01:33:13;19.80;99.90
45409;DHT22;31162;51.076;3.784;2023-08-20T01:35:40;19.80;99.90
45409;DHT22;31162;51.076;3.784;2023-08-20T01:38:06;19.90;99.90
45409;DHT22;31162;51.076;3.784;2023-08-20T01:40:31;20.00;99.90
45409;DHT22;31162;51.076;3.784;2023-08-20T01:42:57;19.90;99.90
45409;DHT22;31162;51.076;3.784;2023-08-20T01:45:23;19.80;99.90
45409;DHT22;31162;51.076;3.784;2023-08-20T01:47:49;19.70;99.90
45409;DHT22;31162;51.076;3.784;2023-08-20T01:50:15;19.60;99.90
45409;DHT22;31162;51.076;3.784;2023-08-20T01:52:40;19.40;99.90
45409;DHT22;31162;51.076;3.784;2023-08-20T01:55:06;19.40;99.90
45409;DHT22;31162;51.076;3.784;2023-08-20T01:57:32;19.30;99.90
45409;DHT22;31162;51.076;3.784;2023-08-20T01:59:58;19.30;99.90
45409;DHT22;31162;51.076;3.784;2023-08-20T02:02:24;19.30;99.90
45409;DHT22;31162;51.076;3.784;2023-08-20T02:04:50;19.30;99.90
45409;DHT22;31162;51.076;3.784;2023-08-20T02:07:16;19.20;99.90
45409;DHT22;31162;51.076;3.784;2023-08-20T02:09:41;19.20;99.90
45409;DHT22;31162;51.076;3.784;2023-08-20T02:12:07;19.30;99.90
45409;DHT22;31162;51.076;3.784;2023-08-20T02:14:33;19.10;99.90
45409;DHT22;31162;51.076;3.784;2023-08-20T02:17:02;19.00;99.90
45409;DHT22;31162;51.076;3.784;2023-08-20T02:19:28;18.90;99.90
45409;DHT22;31162;51.076;3.784;2023-08-20T02:21:56;18.80;99.90
45409;DHT22;31162;51.076;3.784;2023-08-20T02:24:21;18.70;99.90
45409;DHT22;31162;51.076;3.784;2023-08-20T02:26:47;18.60;99.90
45409;DHT22;31162;51.076;3.784;2023-08-20T02:29:13;18.60;99.90
45409;DHT22;31162;51.076;3.784;2023-08-20T02:31:38;18.40;99.90
45409;DHT22;31162;51.076;3.784;2023-08-20T02:34:04;18.40;99.90
45409;DHT22;31162;51.076;3.784;2023-08-20T02:36:30;18.40;99.90
45409;DHT22;31162;51.076;3.784;2023-08-20T02:38:56;18.30;99.90
45409;DHT22;31162;51.076;3.784;2023-08-20T02:41:21;18.30;99.90
45409;DHT22;31162;51.076;3.784;2023-08-20T02:43:47;18.30;99.90
45409;DHT22;31162;51.076;3.784;2023-08-20T02:46:13;18.40;99.90
45409;DHT22;31162;51.076;3.784;2023-08-20T02:48:41;18.40;99.90
45409;DHT22;31162;51.076;3.784;2023-08-20T02:51:07;18.40;99.90
45409;DHT22;31162;51.076;3.784;2023-08-20T02:53:32;18.50;99.90
45409;DHT22;31162;51.076;3.784;2023-08-20T02:55:58;18.50;99.90
45409;DHT22;31162;51.076;3.784;2023-08-20T02:58:24;18.40;99.90
45409;DHT22;31162;51.076;3.784;2023-08-20T03:00:50;18.40;99.90
45409;DHT22;31162;51.076;3.784;2023-08-20T03:03:16;18.50;99.90
45409;DHT22;31162;51.076;3.784;2023-08-20T03:05:42;18.40;99.90
45409;DHT22;31162;51.076;3.784;2023-08-20T03:08:07;18.40;99.90
45409;DHT22;31162;51.076;3.784;2023-08-20T03:10:34;18.40;99.90
45409;DHT22;31162;51.076;3.784;2023-08-20T03:13:01;18.50;99.90
45409;DHT22;31162;51.076;3.784;2023-08-20T03:15:30;18.50;99.90
45409;DHT22;31162;51.076;3.784;2023-08-20T03:17:56;18.40;99.90
45409;DHT22;31162;51.076;3.784;2023-08-20T03:20:21;18.40;99.90
45409;DHT22;31162;51.076;3.784;2023-08-20T03:22:47;18.30;99.90
45409;DHT22;31162;51.076;3.784;2023-08-20T03:25:13;18.30;99.90
45409;DHT22;31162;51.076;3.784;2023-08-20T03:27:39;18.40;99.90
45409;DHT22;31162;51.076;3.784;2023-08-20T03:30:05;18.40;99.90
45409;DHT22;31162;51.076;3.784;2023-08-20T03:32:31;18.20;99.90
45409;DHT22;31162;51.076;3.784;2023-08-20T03:34:57;18.10;99.90
45409;DHT22;31162;51.076;3.784;2023-08-20T03:37:25;18.00;99.90
45409;DHT22;31162;51.076;3.784;2023-08-20T03:39:50;18.00;99.90
45409;DHT22;31162;51.076;3.784;2023-08-20T03:42:16;18.00;99.90
45409;DHT22;31162;51.076;3.784;2023-08-20T03:44:42;18.00;99.90
45409;DHT22;31162;51.076;3.784;2023-08-20T03:47:07;18.10;99.90
45409;DHT22;31162;51.076;3.784;2023-08-20T03:49:33;18.10;99.90
45409;DHT22;31162;51.076;3.784;2023-08-20T03:51:59;18.20;99.90
45409;DHT22;31162;51.076;3.784;2023-08-20T03:54:27;18.20;99.90
45409;DHT22;31162;51.076;3.784;2023-08-20T03:56:53;18.20;99.90
45409;DHT22;31162;51.076;3.784;2023-08-20T03:59:19;18.20;99.90
45409;DHT22;31162;51.076;3.784;2023-08-20T04:01:45;18.10;99.90
45409;DHT22;31162;51.076;3.784;2023-08-20T04:04:10;18.10;99.90
45409;DHT22;31162;51.076;3.784;2023-08-20T04:06:36;18.00;99.90
45409;DHT22;31162;51.076;3.784;2023-08-20T04:09:04;18.00;99.90
45409;DHT22;31162;51.076;3.784;2023-08-20T04:11:30;18.00;99.90
45409;DHT22;31162;51.076;3.784;2023-08-20T04:13:56;17.90;99.90
45409;DHT22;31162;51.076;3.784;2023-08-20T04:16:22;17.80;99.90
45409;DHT22;31162;51.076;3.784;2023-08-20T04:18:47;17.70;99.90
45409;DHT22;31162;51.076;3.784;2023-08-20T04:21:13;17.60;99.90
45409;DHT22;31162;51.076;3.784;2023-08-20T04:23:39;17.60;99.90
45409;DHT22;31162;51.076;3.784;2023-08-20T04:26:04;17.50;99.90
45409;DHT22;31162;51.076;3.784;2023-08-20T04:28:30;17.50;99.90
45409;DHT22;31162;51.076;3.784;2023-08-20T04:30:56;17.50;99.90
45409;DHT22;31162;51.076;3.784;2023-08-20T04:33:22;17.60;99.90
45409;DHT22;31162;51.076;3.784;2023-08-20T04:35:50;17.60;99.90
45409;DHT22;31162;51.076;3.784;2023-08-20T04:38:16;17.60;99.90
45409;DHT22;31162;51.076;3.784;2023-08-20T04:40:42;17.70;99.90
45409;DHT22;31162;51.076;3.784;2023-08-20T04:43:10;17.60;99.90
45409;DHT22;31162;51.076;3.784;2023-08-20T04:45:36;17.50;99.90
45409;DHT22;31162;51.076;3.784;2023-08-20T04:48:01;17.50;99.90
45409;DHT22;31162;51.076;3.784;2023-08-20T04:50:27;17.50;99.90
45409;DHT22;31162;51.076;3.784;2023-08-20T04:52:53;17.50;99.90
45409;DHT22;31162;51.076;3.784;2023-08-20T04:55:18;17.50;99.90
45409;DHT22;31162;51.076;3.784;2023-08-20T04:57:44;17.50;99.90
45409;DHT22;31162;51.076;3.784;2023-08-20T05:00:10;17.40;99.90
45409;DHT22;31162;51.076;3.784;2023-08-20T05:02:36;17.40;99.90
45409;DHT22;31162;51.076;3.784;2023-08-20T05:05:02;17.40;99.90
45409;DHT22;31162;51.076;3.784;2023-08-20T05:07:28;17.40;99.90
45409;DHT22;31162;51.076;3.784;2023-08-20T05:09:54;17.40;99.90
45409;DHT22;31162;51.076;3.784;2023-08-20T05:12:19;17.40;99.90
45409;DHT22;31162;51.076;3.784;2023-08-20T05:14:45;17.40;99.90
45409;DHT22;31162;51.076;3.784;2023-08-20T05:17:11;17.50;99.90
45409;DHT22;31162;51.076;3.784;2023-08-20T05:19:37;17.50;99.90
45409;DHT22;31162;51.076;3.784;2023-08-20T05:22:02;17.50;99.90
45409;DHT22;31162;51.076;3.784;2023-08-20T05:24:28;17.50;99.90
45409;DHT22;31162;51.076;3.784;2023-08-20T05:27:16;17.50;99.90
45409;DHT22;31162;51.076;3.784;2023-08-20T05:29:44;17.70;99.90
45409;DHT22;31162;51.076;3.784;2023-08-20T05:32:10;17.70;99.90
45409;DHT22;31162;51.076;3.784;2023-08-20T05:34:36;17.70;99.90
45409;DHT22;31162;51.076;3.784;2023-08-20T05:37:02;17.80;99.90
45409;DHT22;31162;51.076;3.784;2023-08-20T05:39:30;17.70;99.90
45409;DHT22;31162;51.076;3.784;2023-08-20T05:41:56;17.80;99.90
45409;DHT22;31162;51.076;3.784;2023-08-20T05:44:21;17.80;99.90
45409;DHT22;31162;51.076;3.784;2023-08-20T05:46:48;17.90;99.90
45409;DHT22;31162;51.076;3.784;2023-08-20T05:49:14;18.10;99.90
45409;DHT22;31162;51.076;3.784;2023-08-20T05:51:42;18.10;99.90
45409;DHT22;31162;51.076;3.784;2023-08-20T05:54:07;18.20;99.90
45409;DHT22;31162;51.076;3.784;2023-08-20T05:56:33;18.30;99.90
45409;DHT22;31162;51.076;3.784;2023-08-20T05:58:59;18.40;99.90
45409;DHT22;31162;51.076;3.784;2023-08-20T06:01:27;18.50;99.90
45409;DHT22;31162;51.076;3.784;2023-08-20T06:03:52;18.80;99.90
45409;DHT22;31162;51.076;3.784;2023-08-20T06:06:18;19.10;99.90
45409;DHT22;31162;51.076;3.784;2023-08-20T06:08:44;19.30;99.90
45409;DHT22;31162;51.076;3.784;2023-08-20T06:11:09;21.50;99.90
45409;DHT22;31162;51.076;3.784;2023-08-20T06:13:35;24.90;99.90
45409;DHT22;31162;51.076;3.784;2023-08-20T06:16:01;27.60;99.90
45409;DHT22;31162;51.076;3.784;2023-08-20T06:18:26;28.30;99.90
45409;DHT22;31162;51.076;3.784;2023-08-20T06:20:52;27.10;99.90
45409;DHT22;31162;51.076;3.784;2023-08-20T06:23:17;25.70;99.90
45409;DHT22;31162;51.076;3.784;2023-08-20T06:25:43;25.60;99.90
45409;DHT22;31162;51.076;3.784;2023-08-20T06:28:09;27.90;99.90
45409;DHT22;31162;51.076;3.784;2023-08-20T06:30:35;30.70;99.90
45409;DHT22;31162;51.076;3.784;2023-08-20T06:33:01;32.80;99.90
45409;DHT22;31162;51.076;3.784;2023-08-20T06:35:27;34.50;99.90
45409;DHT22;31162;51.076;3.784;2023-08-20T06:37:52;35.80;99.50
45409;DHT22;31162;51.076;3.784;2023-08-20T06:40:18;36.70;97.70
45409;DHT22;31162;51.076;3.784;2023-08-20T06:42:44;37.50;96.20
45409;DHT22;31162;51.076;3.784;2023-08-20T06:45:09;38.30;94.50
45409;DHT22;31162;51.076;3.784;2023-08-20T06:47:35;39.00;92.90
45409;DHT22;31162;51.076;3.784;2023-08-20T06:50:01;39.30;91.90
45409;DHT22;31162;51.076;3.784;2023-08-20T06:52:27;39.80;90.80
45409;DHT22;31162;51.076;3.784;2023-08-20T06:54:53;40.40;89.30
45409;DHT22;31162;51.076;3.784;2023-08-20T06:57:18;40.50;88.40
45409;DHT22;31162;51.076;3.784;2023-08-20T06:59:44;40.50;86.90
45409;DHT22;31162;51.076;3.784;2023-08-20T07:02:10;40.90;85.80
45409;DHT22;31162;51.076;3.784;2023-08-20T07:04:36;40.70;85.30
45409;DHT22;31162;51.076;3.784;2023-08-20T07:07:02;39.40;85.90
45409;DHT22;31162;51.076;3.784;2023-08-20T07:09:30;38.60;86.20
45409;DHT22;31162;51.076;3.784;2023-08-20T07:11:56;37.50;87.00
45409;DHT22;31162;51.076;3.784;2023-08-20T07:14:21;36.50;88.00
45409;DHT22;31162;51.076;3.784;2023-08-20T07:16:47;36.10;88.60
45409;DHT22;31162;51.076;3.784;2023-08-20T07:19:13;36.20;88.20
45409;DHT22;31162;51.076;3.784;2023-08-20T07:21:38;36.10;88.50
45409;DHT22;31162;51.076;3.784;2023-08-20T07:24:04;35.80;88.80
45409;DHT22;31162;51.076;3.784;2023-08-20T07:26:30;36.10;88.20
45409;DHT22;31162;51.076;3.784;2023-08-20T07:28:55;37.00;88.40
45409;DHT22;31162;51.076;3.784;2023-08-20T07:31:22;38.50;86.10
45409;DHT22;31162;51.076;3.784;2023-08-20T07:33:49;40.20;83.80
45409;DHT22;31162;51.076;3.784;2023-08-20T07:36:15;41.50;81.70
45409;DHT22;31162;51.076;3.784;2023-08-20T07:38:43;42.00;81.50
45409;DHT22;31162;51.076;3.784;2023-08-20T07:41:09;42.50;79.00
45409;DHT22;31162;51.076;3.784;2023-08-20T07:43:37;42.70;79.10
45409;DHT22;31162;51.076;3.784;2023-08-20T07:46:04;43.60;77.60
45409;DHT22;31162;51.076;3.784;2023-08-20T07:48:29;43.20;77.30
45409;DHT22;31162;51.076;3.784;2023-08-20T07:50:55;43.60;76.40
45409;DHT22;31162;51.076;3.784;2023-08-20T07:53:21;43.80;75.90
45409;DHT22;31162;51.076;3.784;2023-08-20T07:55:46;44.60;74.60
45409;DHT22;31162;51.076;3.784;2023-08-20T07:58:12;44.90;74.10
45409;DHT22;31162;51.076;3.784;2023-08-20T08:00:38;45.20;74.00
45409;DHT22;31162;51.076;3.784;2023-08-20T08:03:03;45.30;72.60
45409;DHT22;31162;51.076;3.784;2023-08-20T08:05:29;44.90;72.50
45409;DHT22;31162;51.076;3.784;2023-08-20T08:07:55;45.00;72.10
45409;DHT22;31162;51.076;3.784;2023-08-20T08:10:20;45.50;71.00
45409;DHT22;31162;51.076;3.784;2023-08-20T08:12:46;45.80;70.20
45409;DHT22;31162;51.076;3.784;2023-08-20T08:15:12;45.70;70.70
45409;DHT22;31162;51.076;3.784;2023-08-20T08:17:38;45.60;70.50
45409;DHT22;31162;51.076;3.784;2023-08-20T08:20:04;45.70;69.20
45409;DHT22;31162;51.076;3.784;2023-08-20T08:22:30;46.10;69.30
45409;DHT22;31162;51.076;3.784;2023-08-20T08:24:56;46.10;68.90
45409;DHT22;31162;51.076;3.784;2023-08-20T08:27:21;46.20;68.60
45409;DHT22;31162;51.076;3.784;2023-08-20T08:29:47;46.50;68.50
45409;DHT22;31162;51.076;3.784;2023-08-20T08:32:13;46.70;67.50
45409;DHT22;31162;51.076;3.784;2023-08-20T08:34:39;47.10;67.20
45409;DHT22;31162;51.076;3.784;2023-08-20T08:37:04;47.10;67.40
45409;DHT22;31162;51.076;3.784;2023-08-20T08:39:30;47.10;66.20
45409;DHT22;31162;51.076;3.784;2023-08-20T08:42:01;46.80;66.80
45409;DHT22;31162;51.076;3.784;2023-08-20T08:44:32;46.60;65.60
45409;DHT22;31162;51.076;3.784;2023-08-20T08:46:59;45.90;66.20
45409;DHT22;31162;51.076;3.784;2023-08-20T08:49:25;45.60;65.80
45409;DHT22;31162;51.076;3.784;2023-08-20T08:51:53;45.80;65.70
45409;DHT22;31162;51.076;3.784;2023-08-20T08:54:21;45.90;66.80
45409;DHT22;31162;51.076;3.784;2023-08-20T08:56:47;46.00;66.20
45409;DHT22;31162;51.076;3.784;2023-08-20T08:59:13;45.80;66.30
45409;DHT22;31162;51.076;3.784;2023-08-20T09:01:39;45.90;65.70
45409;DHT22;31162;51.076;3.784;2023-08-20T09:04:05;46.10;64.20
45409;DHT22;31162;51.076;3.784;2023-08-20T09:06:47;46.20;64.40
45409;DHT22;31162;51.076;3.784;2023-08-20T09:09:13;46.50;63.80
45409;DHT22;31162;51.076;3.784;2023-08-20T09:11:39;47.00;64.30
45409;DHT22;31162;51.076;3.784;2023-08-20T09:14:05;47.10;64.00
45409;DHT22;31162;51.076;3.784;2023-08-20T09:16:31;47.10;63.10
45409;DHT22;31162;51.076;3.784;2023-08-20T09:19:00;46.80;63.40
45409;DHT22;31162;51.076;3.784;2023-08-20T09:21:29;46.30;63.50
45409;DHT22;31162;51.076;3.784;2023-08-20T09:23:56;46.10;62.90
45409;DHT22;31162;51.076;3.784;2023-08-20T09:26:22;46.20;63.70
45409;DHT22;31162;51.076;3.784;2023-08-20T09:28:48;46.40;62.00
45409;DHT22;31162;51.076;3.784;2023-08-20T09:31:14;45.90;63.40
45409;DHT22;31162;51.076;3.784;2023-08-20T09:33:53;46.10;63.00
45409;DHT22;31162;51.076;3.784;2023-08-20T09:36:28;45.80;63.20
45409;DHT22;31162;51.076;3.784;2023-08-20T09:38:54;45.40;63.30
45409;DHT22;31162;51.076;3.784;2023-08-20T09:41:22;45.60;63.50
45409;DHT22;31162;51.076;3.784;2023-08-20T09:43:48;45.80;62.40
45409;DHT22;31162;51.076;3.784;2023-08-20T09:46:24;45.50;63.20
45409;DHT22;31162;51.076;3.784;2023-08-20T09:48:51;45.50;61.80
45409;DHT22;31162;51.076;3.784;2023-08-20T09:51:25;45.40;62.70
45409;DHT22;31162;51.076;3.784;2023-08-20T09:53:59;45.60;62.40
45409;DHT22;31162;51.076;3.784;2023-08-20T09:56:30;45.40;61.40
45409;DHT22;31162;51.076;3.784;2023-08-20T09:58:57;45.10;63.00
45409;DHT22;31162;51.076;3.784;2023-08-20T10:01:25;45.00;62.50
45409;DHT22;31162;51.076;3.784;2023-08-20T10:03:51;45.30;64.20
45409;DHT22;31162;51.076;3.784;2023-08-20T10:06:19;45.30;62.30
45409;DHT22;31162;51.076;3.784;2023-08-20T10:08:46;45.10;62.90
45409;DHT22;31162;51.076;3.784;2023-08-20T10:11:12;45.00;63.00
45409;DHT22;31162;51.076;3.784;2023-08-20T10:13:38;45.40;63.30
45409;DHT22;31162;51.076;3.784;2023-08-20T10:16:04;45.80;63.40
45409;DHT22;31162;51.076;3.784;2023-08-20T10:18:30;46.10;62.50
45409;DHT22;31162;51.076;3.784;2023-08-20T10:20:59;46.50;62.50
45409;DHT22;31162;51.076;3.784;2023-08-20T10:23:26;46.90;60.80
45409;DHT22;31162;51.076;3.784;2023-08-20T10:25:52;46.30;61.00
45409;DHT22;31162;51.076;3.784;2023-08-20T10:28:25;45.80;61.40
45409;DHT22;31162;51.076;3.784;2023-08-20T10:31:11;45.50;62.30
45409;DHT22;31162;51.076;3.784;2023-08-20T10:33:48;45.30;62.20
45409;DHT22;31162;51.076;3.784;2023-08-20T10:36:19;45.60;61.50
45409;DHT22;31162;51.076;3.784;2023-08-20T10:38:49;45.10;62.80
45409;DHT22;31162;51.076;3.784;2023-08-20T10:41:15;44.80;61.40
45409;DHT22;31162;51.076;3.784;2023-08-20T10:43:47;44.30;61.90
45409;DHT22;31162;51.076;3.784;2023-08-20T10:46:21;44.80;63.20
45409;DHT22;31162;51.076;3.784;2023-08-20T10:48:51;45.10;62.20
45409;DHT22;31162;51.076;3.784;2023-08-20T10:51:18;45.30;60.70
45409;DHT22;31162;51.076;3.784;2023-08-20T10:54:02;42.30;61.90
45409;DHT22;31162;51.076;3.784;2023-08-20T10:56:38;41.40;64.80
45409;DHT22;31162;51.076;3.784;2023-08-20T10:59:28;40.40;63.80
45409;DHT22;31162;51.076;3.784;2023-08-20T11:01:58;40.50;64.40
45409;DHT22;31162;51.076;3.784;2023-08-20T11:04:30;41.40;64.10
45409;DHT22;31162;51.076;3.784;2023-08-20T11:06:58;39.30;65.70
45409;DHT22;31162;51.076;3.784;2023-08-20T11:09:26;38.70;65.30
45409;DHT22;31162;51.076;3.784;2023-08-20T11:11:52;38.60;64.90
45409;DHT22;31162;51.076;3.784;2023-08-20T11:14:19;40.30;65.20
45409;DHT22;31162;51.076;3.784;2023-08-20T11:16:46;41.80;63.30
45409;DHT22;31162;51.076;3.784;2023-08-20T11:19:13;42.30;63.00
45409;DHT22;31162;51.076;3.784;2023-08-20T11:21:40;42.10;63.20
45409;DHT22;31162;51.076;3.784;2023-08-20T11:24:09;40.90;64.00
45409;DHT22;31162;51.076;3.784;2023-08-20T11:26:38;41.50;64.90
45409;DHT22;31162;51.076;3.784;2023-08-20T11:29:13;42.60;63.90
45409;DHT22;31162;51.076;3.784;2023-08-20T11:31:40;40.20;64.30
45409;DHT22;31162;51.076;3.784;2023-08-20T11:34:06;40.10;65.30
45409;DHT22;31162;51.076;3.784;2023-08-20T11:36:33;38.80;66.40
45409;DHT22;31162;51.076;3.784;2023-08-20T11:38:59;40.00;66.60
45409;DHT22;31162;51.076;3.784;2023-08-20T11:41:25;40.50;65.10
45409;DHT22;31162;51.076;3.784;2023-08-20T11:43:52;40.20;65.20
45409;DHT22;31162;51.076;3.784;2023-08-20T11:46:21;40.30;64.60
45409;DHT22;31162;51.076;3.784;2023-08-20T11:49:06;40.80;64.00
45409;DHT22;31162;51.076;3.784;2023-08-20T11:51:38;40.90;64.60
45409;DHT22;31162;51.076;3.784;2023-08-20T11:54:09;41.40;64.60
45409;DHT22;31162;51.076;3.784;2023-08-20T11:56:35;41.50;64.50
45409;DHT22;31162;51.076;3.784;2023-08-20T11:59:01;41.50;63.80
45409;DHT22;31162;51.076;3.784;2023-08-20T12:01:33;40.10;64.30
45409;DHT22;31162;51.076;3.784;2023-08-20T12:04:07;38.80;67.20
45409;DHT22;31162;51.076;3.784;2023-08-20T12:06:34;39.40;67.00
45409;DHT22;31162;51.076;3.784;2023-08-20T12:09:01;39.60;65.70
45409;DHT22;31162;51.076;3.784;2023-08-20T12:11:30;39.30;66.20
45409;DHT22;31162;51.076;3.784;2023-08-20T12:13:56;38.40;65.60
45409;DHT22;31162;51.076;3.784;2023-08-20T12:16:23;37.80;67.30
45409;DHT22;31162;51.076;3.784;2023-08-20T12:18:49;37.00;67.60
45409;DHT22;31162;51.076;3.784;2023-08-20T12:21:15;36.10;70.30
45409;DHT22;31162;51.076;3.784;2023-08-20T12:23:41;35.60;70.00
45409;DHT22;31162;51.076;3.784;2023-08-20T12:26:07;35.10;70.40
45409;DHT22;31162;51.076;3.784;2023-08-20T12:28:33;34.50;72.80
45409;DHT22;31162;51.076;3.784;2023-08-20T12:30:59;34.30;74.40
45409;DHT22;31162;51.076;3.784;2023-08-20T12:33:25;34.00;73.20
45409;DHT22;31162;51.076;3.784;2023-08-20T12:35:54;33.20;73.50
45409;DHT22;31162;51.076;3.784;2023-08-20T12:38:22;32.50;75.30
45409;DHT22;31162;51.076;3.784;2023-08-20T12:40:48;32.10;76.50
45409;DHT22;31162;51.076;3.784;2023-08-20T12:43:13;32.10;77.10
45409;DHT22;31162;51.076;3.784;2023-08-20T12:45:39;32.40;75.40
45409;DHT22;31162;51.076;3.784;2023-08-20T12:48:06;32.60;75.20
45409;DHT22;31162;51.076;3.784;2023-08-20T12:50:33;32.60;74.50
45409;DHT22;31162;51.076;3.784;2023-08-20T12:52:58;32.20;75.60
45409;DHT22;31162;51.076;3.784;2023-08-20T12:55:24;32.00;75.90
45409;DHT22;31162;51.076;3.784;2023-08-20T12:57:57;31.70;76.20
45409;DHT22;31162;51.076;3.784;2023-08-20T13:00:25;31.60;76.60
45409;DHT22;31162;51.076;3.784;2023-08-20T13:02:51;31.50;78.10
45409;DHT22;31162;51.076;3.784;2023-08-20T13:05:18;32.00;77.50
45409;DHT22;31162;51.076;3.784;2023-08-20T13:07:44;32.30;77.00
45409;DHT22;31162;51.076;3.784;2023-08-20T13:10:10;32.20;77.40
45409;DHT22;31162;51.076;3.784;2023-08-20T13:12:36;32.30;76.70
45409;DHT22;31162;51.076;3.784;2023-08-20T13:15:02;32.40;76.60
45409;DHT22;31162;51.076;3.784;2023-08-20T13:17:29;32.50;77.40
45409;DHT22;31162;51.076;3.784;2023-08-20T13:19:55;32.70;75.40
45409;DHT22;31162;51.076;3.784;2023-08-20T13:22:21;32.90;76.40
45409;DHT22;31162;51.076;3.784;2023-08-20T13:24:47;33.00;76.80
45409;DHT22;31162;51.076;3.784;2023-08-20T13:27:13;33.30;75.00
45409;DHT22;31162;51.076;3.784;2023-08-20T13:29:40;33.50;75.50
45409;DHT22;31162;51.076;3.784;2023-08-20T13:32:06;33.70;76.00
45409;DHT22;31162;51.076;3.784;2023-08-20T13:34:32;33.80;75.50
45409;DHT22;31162;51.076;3.784;2023-08-20T13:36:57;33.90;73.80
45409;DHT22;31162;51.076;3.784;2023-08-20T13:39:23;33.80;75.20
45409;DHT22;31162;51.076;3.784;2023-08-20T13:41:49;34.00;74.90
45409;DHT22;31162;51.076;3.784;2023-08-20T13:44:15;34.20;75.60
45409;DHT22;31162;51.076;3.784;2023-08-20T13:46:41;34.20;73.60
45409;DHT22;31162;51.076;3.784;2023-08-20T13:49:07;34.20;75.40
45409;DHT22;31162;51.076;3.784;2023-08-20T13:51:35;34.00;76.70
45409;DHT22;31162;51.076;3.784;2023-08-20T13:54:01;33.00;80.70
45409;DHT22;31162;51.076;3.784;2023-08-20T13:56:27;32.40;81.90
45409;DHT22;31162;51.076;3.784;2023-08-20T13:58:53;31.90;83.10
45409;DHT22;31162;51.076;3.784;2023-08-20T14:01:19;31.90;83.80
45409;DHT22;31162;51.076;3.784;2023-08-20T14:03:44;31.60;84.40
45409;DHT22;31162;51.076;3.784;2023-08-20T14:06:10;31.50;84.30
45409;DHT22;31162;51.076;3.784;2023-08-20T14:08:36;31.20;84.60
45409;DHT22;31162;51.076;3.784;2023-08-20T14:11:01;31.00;85.80
45409;DHT22;31162;51.076;3.784;2023-08-20T14:13:27;31.00;85.80
45409;DHT22;31162;51.076;3.784;2023-08-20T14:15:53;30.90;85.60
45409;DHT22;31162;51.076;3.784;2023-08-20T14:18:18;31.10;85.90
45409;DHT22;31162;51.076;3.784;2023-08-20T14:20:44;31.10;86.30
45409;DHT22;31162;51.076;3.784;2023-08-20T14:23:10;31.20;86.60
45409;DHT22;31162;51.076;3.784;2023-08-20T14:25:35;31.20;86.60
45409;DHT22;31162;51.076;3.784;2023-08-20T14:28:01;31.20;87.40
45409;DHT22;31162;51.076;3.784;2023-08-20T14:30:26;31.50;85.80
45409;DHT22;31162;51.076;3.784;2023-08-20T14:32:53;31.70;86.40
45409;DHT22;31162;51.076;3.784;2023-08-20T14:35:19;31.60;86.60
45409;DHT22;31162;51.076;3.784;2023-08-20T14:37:45;31.30;86.30
45409;DHT22;31162;51.076;3.784;2023-08-20T14:40:11;31.10;87.20
45409;DHT22;31162;51.076;3.784;2023-08-20T14:42:37;30.90;88.40
45409;DHT22;31162;51.076;3.784;2023-08-20T14:45:03;30.40;88.50
45409;DHT22;31162;51.076;3.784;2023-08-20T14:47:29;30.30;89.50
45409;DHT22;31162;51.076;3.784;2023-08-20T14:49:55;30.30;89.90
45409;DHT22;31162;51.076;3.784;2023-08-20T14:52:21;30.10;89.40
45409;DHT22;31162;51.076;3.784;2023-08-20T14:54:46;30.00;89.90
45409;DHT22;31162;51.076;3.784;2023-08-20T14:57:12;29.70;90.50
45409;DHT22;31162;51.076;3.784;2023-08-20T14:59:38;29.50;90.40
45409;DHT22;31162;51.076;3.784;2023-08-20T15:02:04;29.30;90.70
45409;DHT22;31162;51.076;3.784;2023-08-20T15:04:29;29.40;90.90
45409;DHT22;31162;51.076;3.784;2023-08-20T15:06:55;29.30;90.70
45409;DHT22;31162;51.076;3.784;2023-08-20T15:09:20;29.40;90.80
45409;DHT22;31162;51.076;3.784;2023-08-20T15:11:46;29.40;91.00
45409;DHT22;31162;51.076;3.784;2023-08-20T15:14:12;29.20;90.60
45409;DHT22;31162;51.076;3.784;2023-08-20T15:16:37;29.10;90.70
45409;DHT22;31162;51.076;3.784;2023-08-20T15:19:03;29.10;91.10
45409;DHT22;31162;51.076;3.784;2023-08-20T15:21:29;29.20;91.10
45409;DHT22;31162;51.076;3.784;2023-08-20T15:23:55;29.20;90.80
45409;DHT22;31162;51.076;3.784;2023-08-20T15:26:20;29.30;90.90
45409;DHT22;31162;51.076;3.784;2023-08-20T15:28:46;29.10;90.80
45409;DHT22;31162;51.076;3.784;2023-08-20T15:31:12;28.90;90.70
45409;DHT22;31162;51.076;3.784;2023-08-20T15:33:37;28.60;91.00